• Join FlightAware (Why Join?)
  • Login
  • US Flag 
05:38PM EDT


 

Airport Tracker/Info


-or-


 

Live Flight TrackerFlight Track Log ✈ N20AZ ✈ 12-May-2013 ✈ KIGX - KRYY

Flight Track Log - Related Links

Times and Time Zones

All times are in EDT time to prevent confusion due to time zone crossing. See the N20AZ flight status page for this flight to view local times or setup timezone preferences in your user account.

Time Position Orientation Groundspeed Altitude Reporting Facility
EDT Latitude Longitude Course Direction KTS MPH feet Rate Location/Type
05:18PM 35.9275 -79.1653 278° West 106 122 2,400  Level Washington Center
05:19PM 35.9308 -79.1936 278° West 105 121 2,700 600 Climbing Washington Center
05:20PM 35.9317 -79.2294 272° West 111 128 3,500 540 Climbing Washington Center
05:21PM 35.9328 -79.2656 272° West 110 127 3,900 60 Climbing Washington Center
05:23PM 35.9220 -79.3222 257° West  Level FlightAware Approximate
05:30PM 35.9118 -79.6143 268° West  Level FlightAware Approximate
05:31PM 35.9108 -79.6558 268° West  Level FlightAware Approximate
05:32PM 35.9097 -79.6973 268° West  Level FlightAware Approximate
05:33PM 35.9086 -79.7389 268° West  Level FlightAware Approximate
05:34PM 35.9075 -79.7804 268° West  Level FlightAware Approximate
05:35PM 35.9064 -79.8219 268° West  Level FlightAware Approximate
05:36PM 35.9053 -79.8634 268° West  Level FlightAware Approximate
05:37PM 35.9041 -79.9049 268° West  Level FlightAware Approximate
05:38PM 35.9029 -79.9464 268° West  Level FlightAware Approximate
05:39PM 35.9018 -79.9879 268° West  Level FlightAware Approximate
05:40PM 35.9006 -80.0294 268° West  Level FlightAware Approximate
05:41PM 35.8994 -80.0709 268° West  Level FlightAware Approximate
05:42PM 35.8982 -80.1124 268° West  Level FlightAware Approximate
05:43PM 35.8969 -80.1540 268° West  Level FlightAware Approximate
05:44PM 35.8957 -80.1954 268° West  Level FlightAware Approximate
05:45PM 35.8944 -80.2370 268° West  Level FlightAware Approximate
05:46PM 35.8931 -80.2785 268° West  Level FlightAware Approximate
05:47PM 35.8918 -80.3199 268° West  Level FlightAware Approximate
05:47PM 35.8969 -80.3656 268° West 134 154 5,900  Level Atlanta Center
05:48PM 35.8905 -80.3615 268° West  Level FlightAware Approximate
05:48PM 35.8961 -80.4064 269° West 134 154 5,900  Level Atlanta Center
05:49PM 35.8892 -80.4029 268° West  Level FlightAware Approximate
05:49PM 35.8953 -80.4500 269° West 134 154 5,800  Level Atlanta Center
05:50PM 35.8879 -80.4444 268° West  Level FlightAware Approximate
05:50PM 35.8967 -80.4961 272° West 134 154 5,900  Level Atlanta Center
05:51PM 35.8866 -80.4859 268° West  Level FlightAware Approximate
05:51PM 35.8917 -80.5400 262° West 134 154 5,900  Level Atlanta Center
05:52PM 35.8852 -80.5274 268° West  Level FlightAware Approximate
05:52PM 35.8906 -80.5811 268° West 134 154 6,000  Level Atlanta Center
05:53PM 35.8838 -80.5689 268° West  Level FlightAware Approximate
05:53PM 35.8919 -80.6244 272° West 134 154 6,000  Level Atlanta Center
05:54PM 35.8889 -80.6683 265° West 139 160 6,000  Level Atlanta Center
05:55PM 35.8861 -80.7144 266° West 139 160 6,000 -60 Level Atlanta Center
05:56PM 35.8872 -80.7606 272° West 139 160 5,900 -60 Descending Atlanta Center
05:57PM 35.8864 -80.8067 269° West 144 166 5,900  Level Atlanta Center
05:58PM 35.8814 -80.8506 262° West 136 157 6,000  Climbing Atlanta Center
05:59PM 35.8806 -80.8992 269° West 136 157 5,900  Descending Atlanta Center
06:00PM 35.8797 -80.9481 269° West 141 162 6,000  Climbing Atlanta Center
06:01PM 35.8786 -80.9917 268° West 141 162 6,000  Level Atlanta Center
06:02PM 35.8756 -81.0328 265° West 136 157 6,000  Level Atlanta Center
06:03PM 35.8764 -81.0761 271° West 136 157 6,000 -60 Level Atlanta Center
06:04PM 35.8733 -81.1200 265° West 136 157 5,900 -60 Descending Atlanta Center
06:05PM 35.8492 -81.1514 226° Southwest 126 145 5,900  Level Atlanta Center
06:06PM 35.8292 -81.1906 238° Southwest 131 151 6,000  Climbing Atlanta Center
06:07PM 35.8092 -81.2297 238° Southwest 131 151 6,000 -60 Level Atlanta Center
06:08PM 35.7911 -81.2661 239° Southwest 131 151 5,900  Descending Atlanta Center
06:09PM 35.7714 -81.3053 238° Southwest 131 151 6,000  Climbing Atlanta Center
06:10PM 35.7533 -81.3442 240° Southwest 131 151 6,000  Level Atlanta Center
06:11PM 35.7333 -81.3808 236° Southwest 131 151 6,000  Level Atlanta Center
06:12PM 35.7153 -81.4222 242° Southwest 136 157 6,000  Level Atlanta Center
06:13PM 35.6972 -81.4561 237° Southwest 136 157 6,000  Level Atlanta Center
06:14PM 35.6750 -81.4900 231° Southwest 131 151 6,000  Level Atlanta Center
06:15PM 35.6572 -81.5289 241° Southwest 136 157 6,000  Level Atlanta Center
06:16PM 35.6392 -81.5678 240° Southwest 136 157 6,000  Level Atlanta Center
06:17PM 35.6169 -81.6067 235° Southwest 141 162 6,000  Level Atlanta Center
06:18PM 35.5969 -81.6431 236° Southwest 141 162 6,000  Level Atlanta Center
06:19PM 35.5808 -81.6819 243° Southwest 141 162 6,000  Level Atlanta Center
06:20PM 35.5608 -81.7181 236° Southwest 141 162 6,000  Level Atlanta Center
06:21PM 35.5386 -81.7597 237° Southwest 141 162 6,000  Level Atlanta Center
06:22PM 35.5183 -81.7986 237° Southwest 141 162 6,000  Level Atlanta Center
06:23PM 35.5022 -81.8322 240° Southwest 136 157 6,000  Level Atlanta Center
06:24PM 35.4842 -81.8708 240° Southwest 131 151 6,000  Level Atlanta Center
06:25PM 35.4639 -81.9072 236° Southwest 126 145 6,000  Level Atlanta Center
06:26PM 35.4439 -81.9458 238° Southwest 126 145 6,100  Climbing Atlanta Center
06:27PM 35.4258 -81.9869 242° Southwest 136 157 6,100  Level Atlanta Center
06:28PM 35.4056 -82.0233 236° Southwest 136 157 6,100  Level Atlanta Center
06:29PM 35.3853 -82.0619 237° Southwest 136 157 6,100  Level Atlanta Center
06:30PM 35.3650 -82.0981 235° Southwest 131 151 6,100  Level Atlanta Center
06:31PM 35.3467 -82.1317 236° Southwest 131 151 6,100  Level Atlanta Center
06:32PM 35.3264 -82.1703 237° Southwest 131 151 6,100  Level Atlanta Center
06:33PM 35.3042 -82.2089 235° Southwest 138 159 6,100 -120 Level Atlanta Center
06:34PM 35.2858 -82.2475 240° Southwest 144 166 5,900 -120 Descending Atlanta Center
06:35PM 35.2697 -82.2861 243° Southwest 139 160 5,900  Level Atlanta Center
06:36PM 35.2494 -82.3247 237° Southwest 139 160 5,900  Level Atlanta Center
06:37PM 35.2269 -82.3633 235° Southwest 132 152 6,000 120 Climbing Atlanta Center
06:38PM 35.2086 -82.4017 240° Southwest 132 152 6,200 240 Climbing Atlanta Center
06:39PM 35.1903 -82.4353 236° Southwest 132 152 6,500 240 Climbing Atlanta Center
06:40PM 35.1636 -82.4686 226° Southwest 132 152 6,700 120 Climbing Atlanta Center
06:41PM 35.1475 -82.5044 241° Southwest 132 152 6,800  Climbing Atlanta Center
06:42PM 35.1311 -82.5378 239° Southwest 132 152 6,800 60 Level Atlanta Center
06:43PM 35.1108 -82.5764 237° Southwest 138 159 7,000  Climbing Atlanta Center
06:44PM 35.0883 -82.6147 234° Southwest 136 157 6,900 -60 Descending Atlanta Center
06:45PM 35.0700 -82.6531 240° Southwest 141 162 6,900  Level Atlanta Center
06:46PM 35.0494 -82.6942 239° Southwest 141 162 6,900  Level Atlanta Center
06:47PM 35.0292 -82.7325 237° Southwest 146 168 7,000  Climbing Atlanta Center
06:48PM 35.0086 -82.7733 238° Southwest 146 168 7,000 -60 Level Atlanta Center
06:49PM 34.9839 -82.8142 234° Southwest 151 174 6,900 -60 Descending Atlanta Center
06:50PM 34.9636 -82.8525 237° Southwest 151 174 6,900  Level Atlanta Center
06:51PM 34.9431 -82.8936 239° Southwest 151 174 6,900  Level Atlanta Center
06:52PM 34.9206 -82.9394 239° Southwest 151 174 6,900  Level Atlanta Center
06:53PM 34.8978 -82.9750 232° Southwest 151 174 6,900  Level Atlanta Center
06:54PM 34.8753 -83.0183 238° Southwest 151 174 7,000  Climbing Atlanta Center
06:55PM 34.8506 -83.0592 234° Southwest 151 174 6,900 -60 Descending Atlanta Center
06:56PM 34.8322 -83.1025 243° Southwest 151 174 6,900  Level Atlanta Center
06:57PM 34.8114 -83.1406 236° Southwest 146 168 6,900  Level Atlanta Center
06:58PM 34.7889 -83.1814 236° Southwest 146 168 6,900  Level Atlanta Center
06:59PM 34.7661 -83.2194 234° Southwest 146 168 6,900 -300 Level Atlanta Center
07:00PM 34.7456 -83.2628 240° Southwest 146 168 6,300 -480 Descending Atlanta Center
07:01PM 34.7186 -83.3083 234° Southwest 159 183 6,000 -180 Descending Atlanta Center
07:02PM 34.7003 -83.3464 240° Southwest 152 175 6,000  Level Atlanta Center
07:03PM 34.6753 -83.3897 235° Southwest 152 175 6,000  Level Atlanta Center
07:04PM 34.6547 -83.4303 238° Southwest 143 165 6,000  Level Atlanta Center
07:05PM 34.6319 -83.4683 234° Southwest 148 170 6,000  Level Atlanta Center
07:06PM 34.6092 -83.5114 237° Southwest 148 170 6,000  Level Atlanta Center
07:07PM 34.5906 -83.5517 241° Southwest 148 170 6,000  Level Atlanta Center
07:08PM 34.5697 -83.5897 236° Southwest 143 165 6,000  Level Atlanta Center
07:09PM 34.5469 -83.6328 237° Southwest 137 158 6,000  Level Atlanta Center
07:10PM 34.5264 -83.6681 235° Southwest 145 167 6,000  Level Atlanta Center
07:11PM 34.5056 -83.7061 236° Southwest 145 167 6,000  Level Atlanta Center
07:12PM 34.4869 -83.7464 241° Southwest 145 167 6,000  Level Atlanta Center
07:13PM 34.4639 -83.7842 233° Southwest 145 167 6,000  Level Atlanta Center
07:14PM 34.4431 -83.8222 236° Southwest 145 167 6,000  Level Atlanta Center
07:15PM 34.4222 -83.8600 236° Southwest 145 167 6,000  Level Atlanta Center
07:16PM 34.4014 -83.8978 236° Southwest 145 167 6,000  Level Atlanta Center
07:17PM 34.3764 -83.9406 235° Southwest 145 167 6,000  Level Atlanta Center
07:18PM 34.3556 -83.9783 236° Southwest 145 167 6,000  Level Atlanta Center
07:19PM 34.3328 -84.0186 236° Southwest 150 173 6,000  Level Atlanta Center
07:20PM 34.3139 -84.0589 240° Southwest 145 167 6,000  Level Atlanta Center
07:21PM 34.2931 -84.0992 238° Southwest 145 167 6,000  Level Atlanta Center
07:22PM 34.2700 -84.1344 232° Southwest 145 167 6,000 -180 Level Atlanta Center
07:23PM 34.2492 -84.1744 238° Southwest 145 167 5,700 -600 Descending Atlanta Center
07:24PM 34.2283 -84.2147 238° Southwest 145 167 4,800 -720 Descending Atlanta Center
07:26PM 34.2000 -84.2833 243° Southwest 141 162 3,900 -420 Descending Atlanta TRACON
07:27PM 34.1667 -84.3167 220° Southwest 130 150 3,800 -360 Descending Atlanta TRACON
07:28PM 34.1500 -84.3500 239° Southwest 144 166 3,200 -300 Descending Atlanta TRACON
07:30PM 34.1000 -84.4167 228° Southwest 144 166 2,900 -180 Descending Atlanta TRACON
07:31PM 34.0667 -84.4333 202° Southwest 148 170 2,800 -180 Descending Atlanta TRACON
07:32PM 34.0167 -84.4333 180° South 146 168 2,600 -480 Descending Atlanta TRACON
07:33PM 34.0167 -84.4833 270° West 129 148 1,900 -540 Descending Atlanta TRACON
07:34PM 34.0167 -84.5167 270° West 120 138 1,600 -300 Descending Atlanta TRACON
07:35PM 34.0167 -84.5667 270° West 115 132 1,300 -300 Descending Atlanta TRACON
07:37PM 34.0000 -84.5833 239° Southwest  Level FlightAware Approximate
07:44PM 34.0132 -84.5971 239° Southwest  Level Estimated